sensor_id;sensor_type;location;lat;lon;timestamp;pressure;altitude;pressure_sealevel;temperature;humidity
71996;BME280;59862;47.732;7.346;2023-04-07T00:00:54;98076.77;;;8.48;58.25
71996;BME280;59862;47.732;7.346;2023-04-07T00:03:22;98077.94;;;8.46;57.66
71996;BME280;59862;47.732;7.346;2023-04-07T00:05:49;98083.30;;;8.37;58.01
71996;BME280;59862;47.732;7.346;2023-04-07T00:08:17;98074.77;;;8.42;57.59
71996;BME280;59862;47.732;7.346;2023-04-07T00:10:44;98081.11;;;8.41;57.12
71996;BME280;59862;47.732;7.346;2023-04-07T00:13:12;98080.78;;;8.48;56.85
71996;BME280;59862;47.732;7.346;2023-04-07T00:15:39;98079.94;;;8.48;57.05
71996;BME280;59862;47.732;7.346;2023-04-07T00:18:07;98077.27;;;8.48;57.23
71996;BME280;59862;47.732;7.346;2023-04-07T00:20:34;98078.78;;;8.46;57.38
71996;BME280;59862;47.732;7.346;2023-04-07T00:23:01;98077.11;;;8.53;57.79
71996;BME280;59862;47.732;7.346;2023-04-07T00:25:29;98074.77;;;8.46;57.19
71996;BME280;59862;47.732;7.346;2023-04-07T00:27:56;98074.57;;;8.56;57.01
71996;BME280;59862;47.732;7.346;2023-04-07T00:30:24;98072.25;;;8.57;56.81
71996;BME280;59862;47.732;7.346;2023-04-07T00:32:51;98066.73;;;8.54;57.20
71996;BME280;59862;47.732;7.346;2023-04-07T00:35:19;98003.08;;;8.09;56.92
71996;BME280;59862;47.732;7.346;2023-04-07T00:37:46;98054.55;;;8.44;56.95
71996;BME280;59862;47.732;7.346;2023-04-07T00:40:14;98052.88;;;8.47;57.01
71996;BME280;59862;47.732;7.346;2023-04-07T00:42:41;98050.87;;;8.36;57.36
71996;BME280;59862;47.732;7.346;2023-04-07T00:45:09;98047.35;;;8.36;57.72
71996;BME280;59862;47.732;7.346;2023-04-07T00:47:37;98049.88;;;8.33;57.66
71996;BME280;59862;47.732;7.346;2023-04-07T00:50:05;98052.02;;;8.22;57.91
71996;BME280;59862;47.732;7.346;2023-04-07T00:52:33;98037.33;;;8.14;58.27
71996;BME280;59862;47.732;7.346;2023-04-07T00:55:02;98024.14;;;8.16;58.46
71996;BME280;59862;47.732;7.346;2023-04-07T00:57:30;98031.29;;;8.08;58.56
71996;BME280;59862;47.732;7.346;2023-04-07T00:59:57;98035.97;;;8.06;58.69
71996;BME280;59862;47.732;7.346;2023-04-07T01:02:54;98031.30;;;7.96;58.97
71996;BME280;59862;47.732;7.346;2023-04-07T01:08:23;98031.65;;;7.97;59.05
71996;BME280;59862;47.732;7.346;2023-04-07T01:10:55;98022.79;;;7.92;59.14
71996;BME280;59862;47.732;7.346;2023-04-07T01:13:36;98024.30;;;7.95;59.05
71996;BME280;59862;47.732;7.346;2023-04-07T01:15:57;98021.28;;;7.94;59.06
71996;BME280;59862;47.732;7.346;2023-04-07T01:18:28;98013.93;;;7.96;59.33
71996;BME280;59862;47.732;7.346;2023-04-07T01:21:01;98002.58;;;7.94;59.43
71996;BME280;59862;47.732;7.346;2023-04-07T01:23:48;97996.89;;;7.89;59.60
71996;BME280;59862;47.732;7.346;2023-04-07T01:26:29;97983.88;;;7.90;59.47
71996;BME280;59862;47.732;7.346;2023-04-07T01:29:36;97985.55;;;7.71;60.08
71996;BME280;59862;47.732;7.346;2023-04-07T01:32:04;97987.02;;;7.69;60.35
71996;BME280;59862;47.732;7.346;2023-04-07T01:34:34;97982.88;;;7.75;60.45
71996;BME280;59862;47.732;7.346;2023-04-07T01:37:04;97974.20;;;7.69;60.66
71996;BME280;59862;47.732;7.346;2023-04-07T01:39:33;97974.87;;;7.67;61.16
71996;BME280;59862;47.732;7.346;2023-04-07T01:42:03;97964.33;;;7.61;61.25
71996;BME280;59862;47.732;7.346;2023-04-07T01:44:32;97959.83;;;7.61;61.22
71996;BME280;59862;47.732;7.346;2023-04-07T01:47:01;97959.16;;;7.63;61.48
71996;BME280;59862;47.732;7.346;2023-04-07T01:49:30;97955.16;;;7.63;61.50
71996;BME280;59862;47.732;7.346;2023-04-07T01:51:59;97942.80;;;7.50;61.78
71996;BME280;59862;47.732;7.346;2023-04-07T01:54:27;97934.09;;;7.32;62.30
71996;BME280;59862;47.732;7.346;2023-04-07T01:56:55;97928.11;;;7.42;62.99
71996;BME280;59862;47.732;7.346;2023-04-07T01:59:23;97927.73;;;7.21;63.11
71996;BME280;59862;47.732;7.346;2023-04-07T02:01:51;97925.89;;;7.06;63.85
71996;BME280;59862;47.732;7.346;2023-04-07T02:04:28;97911.35;;;7.00;63.58
71996;BME280;59862;47.732;7.346;2023-04-07T02:06:54;97910.02;;;7.04;63.44
71996;BME280;59862;47.732;7.346;2023-04-07T02:09:24;97910.88;;;7.13;63.69
71996;BME280;59862;47.732;7.346;2023-04-07T02:11:54;97917.58;;;7.21;63.54
71996;BME280;59862;47.732;7.346;2023-04-07T02:14:23;97921.41;;;7.26;63.47
71996;BME280;59862;47.732;7.346;2023-04-07T02:16:52;97860.48;;;6.85;63.86
71996;BME280;59862;47.732;7.346;2023-04-07T02:19:21;97913.05;;;7.21;64.19
71996;BME280;59862;47.732;7.346;2023-04-07T02:21:51;97921.05;;;7.17;63.68
71996;BME280;59862;47.732;7.346;2023-04-07T02:24:19;97914.91;;;7.17;64.07
71996;BME280;59862;47.732;7.346;2023-04-07T02:26:50;97911.21;;;7.02;64.74
71996;BME280;59862;47.732;7.346;2023-04-07T02:29:17;97916.37;;;6.99;64.35
71996;BME280;59862;47.732;7.346;2023-04-07T02:31:45;97921.22;;;7.04;64.46
71996;BME280;59862;47.732;7.346;2023-04-07T02:34:13;97926.36;;;6.97;64.30
71996;BME280;59862;47.732;7.346;2023-04-07T02:36:40;97930.00;;;6.88;64.61
71996;BME280;59862;47.732;7.346;2023-04-07T02:39:09;97933.44;;;6.72;64.74
71996;BME280;59862;47.732;7.346;2023-04-07T02:41:36;97927.25;;;6.68;65.08
71996;BME280;59862;47.732;7.346;2023-04-07T02:44:03;97929.91;;;6.64;65.03
71996;BME280;59862;47.732;7.346;2023-04-07T02:46:31;97930.70;;;6.56;65.30
71996;BME280;59862;47.732;7.346;2023-04-07T02:48:58;97927.52;;;6.53;65.28
71996;BME280;59862;47.732;7.346;2023-04-07T02:51:26;97921.92;;;6.68;65.07
71996;BME280;59862;47.732;7.346;2023-04-07T02:53:54;97925.14;;;6.79;64.64
71996;BME280;59862;47.732;7.346;2023-04-07T02:56:21;97921.51;;;6.88;64.44
71996;BME280;59862;47.732;7.346;2023-04-07T02:58:49;97913.52;;;6.97;64.36
71996;BME280;59862;47.732;7.346;2023-04-07T03:01:16;97914.20;;;7.03;64.32
71996;BME280;59862;47.732;7.346;2023-04-07T03:03:44;97896.68;;;7.00;64.24
71996;BME280;59862;47.732;7.346;2023-04-07T03:06:13;97898.69;;;7.06;64.38
71996;BME280;59862;47.732;7.346;2023-04-07T03:08:41;97899.70;;;7.09;64.11
71996;BME280;59862;47.732;7.346;2023-04-07T03:11:09;97899.21;;;7.10;64.05
71996;BME280;59862;47.732;7.346;2023-04-07T03:13:36;97901.53;;;7.09;64.06
71996;BME280;59862;47.732;7.346;2023-04-07T03:16:04;97896.69;;;7.08;64.16
71996;BME280;59862;47.732;7.346;2023-04-07T03:18:32;97893.38;;;7.10;63.95
71996;BME280;59862;47.732;7.346;2023-04-07T03:20:59;97884.05;;;7.14;63.68
71996;BME280;59862;47.732;7.346;2023-04-07T03:23:26;97879.38;;;7.20;63.39
71996;BME280;59862;47.732;7.346;2023-04-07T03:25:54;97882.39;;;7.25;63.25
71996;BME280;59862;47.732;7.346;2023-04-07T03:28:23;97883.72;;;7.41;63.17
71996;BME280;59862;47.732;7.346;2023-04-07T03:30:51;97881.72;;;7.47;62.95
71996;BME280;59862;47.732;7.346;2023-04-07T03:33:18;97876.38;;;7.47;62.39
71996;BME280;59862;47.732;7.346;2023-04-07T03:35:46;97870.72;;;7.50;62.58
71996;BME280;59862;47.732;7.346;2023-04-07T03:38:13;97874.04;;;7.60;62.21
71996;BME280;59862;47.732;7.346;2023-04-07T03:40:41;97872.72;;;7.69;62.08
71996;BME280;59862;47.732;7.346;2023-04-07T03:43:08;97870.20;;;7.79;61.98
71996;BME280;59862;47.732;7.346;2023-04-07T03:45:38;97871.17;;;7.86;61.56
71996;BME280;59862;47.732;7.346;2023-04-07T03:48:05;97864.19;;;7.81;61.48
71996;BME280;59862;47.732;7.346;2023-04-07T03:50:34;97867.18;;;7.90;61.36
71996;BME280;59862;47.732;7.346;2023-04-07T03:53:02;97869.83;;;7.98;61.27
71996;BME280;59862;47.732;7.346;2023-04-07T03:55:29;97861.47;;;7.97;61.16
71996;BME280;59862;47.732;7.346;2023-04-07T03:57:57;97858.47;;;8.00;62.00
71996;BME280;59862;47.732;7.346;2023-04-07T04:00:25;97859.53;;;7.75;62.17
71996;BME280;59862;47.732;7.346;2023-04-07T04:02:52;97855.83;;;7.80;62.59
71996;BME280;59862;47.732;7.346;2023-04-07T04:05:20;97864.33;;;7.80;62.66
71996;BME280;59862;47.732;7.346;2023-04-07T04:07:47;97862.69;;;7.75;63.04
71996;BME280;59862;47.732;7.346;2023-04-07T04:10:17;97858.02;;;7.73;62.05
71996;BME280;59862;47.732;7.346;2023-04-07T04:12:46;97862.01;;;7.81;62.73
71996;BME280;59862;47.732;7.346;2023-04-07T04:15:15;97861.83;;;7.82;62.65
71996;BME280;59862;47.732;7.346;2023-04-07T04:17:42;97862.69;;;7.75;61.79
71996;BME280;59862;47.732;7.346;2023-04-07T04:20:10;97866.36;;;7.70;61.94
71996;BME280;59862;47.732;7.346;2023-04-07T04:22:38;97861.22;;;7.60;61.57
71996;BME280;59862;47.732;7.346;2023-04-07T04:25:05;97860.52;;;7.70;61.91
71996;BME280;59862;47.732;7.346;2023-04-07T04:27:33;97862.54;;;7.64;61.49
71996;BME280;59862;47.732;7.346;2023-04-07T04:30:00;97864.02;;;7.62;61.42
71996;BME280;59862;47.732;7.346;2023-04-07T04:32:28;97871.36;;;7.64;61.42
71996;BME280;59862;47.732;7.346;2023-04-07T04:34:56;97867.54;;;7.59;61.84
71996;BME280;59862;47.732;7.346;2023-04-07T04:37:23;97871.04;;;7.47;62.43
71996;BME280;59862;47.732;7.346;2023-04-07T04:39:51;97874.70;;;7.34;63.28
71996;BME280;59862;47.732;7.346;2023-04-07T04:42:19;97880.05;;;7.18;64.76
71996;BME280;59862;47.732;7.346;2023-04-07T04:44:46;97878.00;;;7.00;66.15
71996;BME280;59862;47.732;7.346;2023-04-07T04:47:14;97879.98;;;6.82;66.98
71996;BME280;59862;47.732;7.346;2023-04-07T04:49:41;97881.44;;;6.68;67.90
71996;BME280;59862;47.732;7.346;2023-04-07T04:52:08;97877.89;;;6.52;69.04
71996;BME280;59862;47.732;7.346;2023-04-07T04:54:36;97880.78;;;6.33;70.22
71996;BME280;59862;47.732;7.346;2023-04-07T04:57:03;97888.42;;;6.24;71.29
71996;BME280;59862;47.732;7.346;2023-04-07T04:59:32;97885.56;;;6.17;71.95
71996;BME280;59862;47.732;7.346;2023-04-07T05:02:00;97880.03;;;6.10;72.59
71996;BME280;59862;47.732;7.346;2023-04-07T05:04:27;97883.38;;;6.13;73.00
71996;BME280;59862;47.732;7.346;2023-04-07T05:06:55;97884.69;;;6.08;73.39
71996;BME280;59862;47.732;7.346;2023-04-07T05:09:22;97879.36;;;6.08;73.71
71996;BME280;59862;47.732;7.346;2023-04-07T05:11:50;97883.00;;;6.07;74.08
71996;BME280;59862;47.732;7.346;2023-04-07T05:14:17;97883.30;;;6.04;74.26
71996;BME280;59862;47.732;7.346;2023-04-07T05:16:44;97883.47;;;6.03;74.67
71996;BME280;59862;47.732;7.346;2023-04-07T05:19:12;97883.00;;;6.07;74.94
71996;BME280;59862;47.732;7.346;2023-04-07T05:21:40;97879.68;;;6.09;74.91
71996;BME280;59862;47.732;7.346;2023-04-07T05:24:07;97880.99;;;6.05;75.47
71996;BME280;59862;47.732;7.346;2023-04-07T05:26:35;97879.97;;;6.02;75.72
71996;BME280;59862;47.732;7.346;2023-04-07T05:29:02;97882.31;;;6.01;76.18
71996;BME280;59862;47.732;7.346;2023-04-07T05:31:30;97881.97;;;6.04;76.56
71996;BME280;59862;47.732;7.346;2023-04-07T05:33:58;97881.65;;;6.03;76.85
71996;BME280;59862;47.732;7.346;2023-04-07T05:36:26;97884.41;;;5.94;77.17
71996;BME280;59862;47.732;7.346;2023-04-07T05:38:53;97878.24;;;5.93;77.30
71996;BME280;59862;47.732;7.346;2023-04-07T05:41:21;97886.55;;;5.86;77.48
71996;BME280;59862;47.732;7.346;2023-04-07T05:43:49;97882.89;;;5.91;77.47
71996;BME280;59862;47.732;7.346;2023-04-07T05:46:16;97884.39;;;5.90;77.68
71996;BME280;59862;47.732;7.346;2023-04-07T05:48:44;97882.22;;;5.89;77.80
71996;BME280;59862;47.732;7.346;2023-04-07T05:51:11;97884.58;;;5.92;78.06
71996;BME280;59862;47.732;7.346;2023-04-07T05:53:39;97887.22;;;5.88;78.49
71996;BME280;59862;47.732;7.346;2023-04-07T05:56:06;97885.81;;;5.80;78.84
71996;BME280;59862;47.732;7.346;2023-04-07T05:58:34;97884.15;;;5.83;79.22
71996;BME280;59862;47.732;7.346;2023-04-07T06:01:01;97882.87;;;5.87;79.56
71996;BME280;59862;47.732;7.346;2023-04-07T06:03:29;97882.20;;;5.85;79.65
71996;BME280;59862;47.732;7.346;2023-04-07T06:05:57;97880.33;;;5.82;79.82
71996;BME280;59862;47.732;7.346;2023-04-07T06:08:24;97883.83;;;5.82;80.16
71996;BME280;59862;47.732;7.346;2023-04-07T06:10:52;97883.75;;;5.74;80.54
71996;BME280;59862;47.732;7.346;2023-04-07T06:13:20;97882.12;;;5.77;80.82
71996;BME280;59862;47.732;7.346;2023-04-07T06:15:47;97888.14;;;5.83;81.09
71996;BME280;59862;47.732;7.346;2023-04-07T06:18:14;97893.09;;;5.78;81.63
71996;BME280;59862;47.732;7.346;2023-04-07T06:20:42;97888.94;;;5.76;82.22
71996;BME280;59862;47.732;7.346;2023-04-07T06:23:09;97891.06;;;5.72;82.74
71996;BME280;59862;47.732;7.346;2023-04-07T06:25:37;97893.23;;;5.73;83.15
71996;BME280;59862;47.732;7.346;2023-04-07T06:28:05;97899.05;;;5.72;83.54
71996;BME280;59862;47.732;7.346;2023-04-07T06:30:33;97896.38;;;5.72;84.01
71996;BME280;59862;47.732;7.346;2023-04-07T06:33:01;97902.34;;;5.66;84.43
71996;BME280;59862;47.732;7.346;2023-04-07T06:35:28;97911.44;;;5.60;84.84
71996;BME280;59862;47.732;7.346;2023-04-07T06:37:55;97908.28;;;5.60;85.25
71996;BME280;59862;47.732;7.346;2023-04-07T06:40:23;97904.78;;;5.60;85.53
71996;BME280;59862;47.732;7.346;2023-04-07T06:42:51;97916.95;;;5.62;85.68
71996;BME280;59862;47.732;7.346;2023-04-07T06:45:19;97914.61;;;5.63;85.81
71996;BME280;59862;47.732;7.346;2023-04-07T06:47:47;97902.69;;;5.67;85.83
71996;BME280;59862;47.732;7.346;2023-04-07T06:50:15;97899.70;;;5.70;85.71
71996;BME280;59862;47.732;7.346;2023-04-07T06:52:44;97914.77;;;5.62;85.86
71996;BME280;59862;47.732;7.346;2023-04-07T06:55:11;97905.41;;;5.54;86.20
71996;BME280;59862;47.732;7.346;2023-04-07T06:57:39;97914.79;;;5.44;86.89
71996;BME280;59862;47.732;7.346;2023-04-07T07:00:07;97912.10;;;5.40;87.42
71996;BME280;59862;47.732;7.346;2023-04-07T07:02:36;97913.78;;;5.41;87.82
71996;BME280;59862;47.732;7.346;2023-04-07T07:05:04;97918.01;;;5.30;88.05
71996;BME280;59862;47.732;7.346;2023-04-07T07:07:32;97918.11;;;5.24;88.35
71996;BME280;59862;47.732;7.346;2023-04-07T07:09:59;97924.16;;;5.13;88.37
71996;BME280;59862;47.732;7.346;2023-04-07T07:12:27;97925.14;;;5.12;88.59
71996;BME280;59862;47.732;7.346;2023-04-07T07:14:54;97937.03;;;5.04;88.84
71996;BME280;59862;47.732;7.346;2023-04-07T07:17:22;97941.95;;;4.99;89.11
71996;BME280;59862;47.732;7.346;2023-04-07T07:19:49;97936.96;;;4.82;89.22
71996;BME280;59862;47.732;7.346;2023-04-07T07:22:17;97936.80;;;4.84;89.50
71996;BME280;59862;47.732;7.346;2023-04-07T07:24:44;97946.02;;;4.76;89.60
71996;BME280;59862;47.732;7.346;2023-04-07T07:27:11;97942.64;;;4.70;89.56
71996;BME280;59862;47.732;7.346;2023-04-07T07:29:39;97950.56;;;4.66;89.49
71996;BME280;59862;47.732;7.346;2023-04-07T07:32:07;97941.63;;;4.57;89.29
71996;BME280;59862;47.732;7.346;2023-04-07T07:34:34;97955.50;;;4.51;89.30
71996;BME280;59862;47.732;7.346;2023-04-07T07:37:02;97955.64;;;4.36;89.18
71996;BME280;59862;47.732;7.346;2023-04-07T07:39:29;97957.08;;;4.30;89.32
71996;BME280;59862;47.732;7.346;2023-04-07T07:41:56;97949.87;;;4.27;89.74
71996;BME280;59862;47.732;7.346;2023-04-07T07:44:24;97964.04;;;4.31;90.17
71996;BME280;59862;47.732;7.346;2023-04-07T07:46:51;97960.37;;;4.28;90.38
71996;BME280;59862;47.732;7.346;2023-04-07T07:49:19;97968.20;;;4.20;90.39
71996;BME280;59862;47.732;7.346;2023-04-07T07:51:47;97960.28;;;4.11;90.22
71996;BME280;59862;47.732;7.346;2023-04-07T07:54:14;97964.33;;;4.05;90.13
71996;BME280;59862;47.732;7.346;2023-04-07T07:56:42;97970.27;;;4.03;90.30
71996;BME280;59862;47.732;7.346;2023-04-07T07:59:09;97967.17;;;3.94;90.45
71996;BME280;59862;47.732;7.346;2023-04-07T08:01:37;97969.41;;;3.89;90.56
71996;BME280;59862;47.732;7.346;2023-04-07T08:04:04;97977.80;;;3.75;90.31
71996;BME280;59862;47.732;7.346;2023-04-07T08:06:31;97983.98;;;3.66;90.28
71996;BME280;59862;47.732;7.346;2023-04-07T08:08:59;97986.27;;;3.65;90.41
71996;BME280;59862;47.732;7.346;2023-04-07T08:11:26;97987.41;;;3.53;90.36
71996;BME280;59862;47.732;7.346;2023-04-07T08:13:54;97996.82;;;3.42;90.36
71996;BME280;59862;47.732;7.346;2023-04-07T08:16:22;97995.61;;;3.40;90.54
71996;BME280;59862;47.732;7.346;2023-04-07T08:18:52;97996.19;;;3.44;90.63
71996;BME280;59862;47.732;7.346;2023-04-07T08:21:19;98000.56;;;3.30;90.44
71996;BME280;59862;47.732;7.346;2023-04-07T08:23:47;98005.31;;;3.26;90.36
71996;BME280;59862;47.732;7.346;2023-04-07T08:26:14;98001.39;;;3.21;90.38
71996;BME280;59862;47.732;7.346;2023-04-07T08:28:42;97999.98;;;3.17;90.48
71996;BME280;59862;47.732;7.346;2023-04-07T08:31:09;98003.63;;;3.16;90.66
71996;BME280;59862;47.732;7.346;2023-04-07T08:33:37;97999.58;;;3.12;90.71
71996;BME280;59862;47.732;7.346;2023-04-07T08:36:05;98006.47;;;3.08;90.81
71996;BME280;59862;47.732;7.346;2023-04-07T08:38:32;98009.08;;;3.24;91.06
71996;BME280;59862;47.732;7.346;2023-04-07T08:41:09;98009.97;;;3.19;91.14
71996;BME280;59862;47.732;7.346;2023-04-07T08:43:38;98014.79;;;3.10;90.95
71996;BME280;59862;47.732;7.346;2023-04-07T08:46:08;98020.42;;;3.11;91.11
71996;BME280;59862;47.732;7.346;2023-04-07T08:48:38;98028.05;;;3.19;91.24
71996;BME280;59862;47.732;7.346;2023-04-07T08:51:07;98034.45;;;3.17;91.15
71996;BME280;59862;47.732;7.346;2023-04-07T08:53:40;98033.27;;;3.15;91.02
71996;BME280;59862;47.732;7.346;2023-04-07T08:56:07;98044.65;;;3.12;90.74
71996;BME280;59862;47.732;7.346;2023-04-07T08:58:36;98037.61;;;3.16;90.70
71996;BME280;59862;47.732;7.346;2023-04-07T09:01:08;98042.55;;;3.15;90.68
71996;BME280;59862;47.732;7.346;2023-04-07T09:03:37;98042.59;;;3.25;90.73
71996;BME280;59862;47.732;7.346;2023-04-07T09:06:06;98047.55;;;3.33;90.71
71996;BME280;59862;47.732;7.346;2023-04-07T09:08:33;98047.55;;;3.33;90.40
71996;BME280;59862;47.732;7.346;2023-04-07T09:11:01;98063.69;;;3.21;89.89
71996;BME280;59862;47.732;7.346;2023-04-07T09:13:28;98057.91;;;3.21;89.89
71996;BME280;59862;47.732;7.346;2023-04-07T09:15:58;98066.16;;;3.28;89.95
71996;BME280;59862;47.732;7.346;2023-04-07T09:18:27;98060.73;;;3.39;89.84
71996;BME280;59862;47.732;7.346;2023-04-07T09:23:36;98074.26;;;3.36;89.36
71996;BME280;59862;47.732;7.346;2023-04-07T09:28:53;98078.38;;;3.25;89.16
71996;BME280;59862;47.732;7.346;2023-04-07T09:31:17;98078.71;;;3.26;89.13
71996;BME280;59862;47.732;7.346;2023-04-07T09:33:49;98078.48;;;3.23;89.05
71996;BME280;59862;47.732;7.346;2023-04-07T09:36:18;98079.92;;;3.37;89.34
71996;BME280;59862;47.732;7.346;2023-04-07T09:38:46;98085.16;;;3.42;89.35
71996;BME280;59862;47.732;7.346;2023-04-07T09:41:15;98081.47;;;3.49;89.28
71996;BME280;59862;47.732;7.346;2023-04-07T09:43:44;98082.90;;;3.53;89.26
71996;BME280;59862;47.732;7.346;2023-04-07T09:46:16;98083.04;;;3.61;89.27
71996;BME280;59862;47.732;7.346;2023-04-07T09:48:45;98089.41;;;3.83;89.36
71996;BME280;59862;47.732;7.346;2023-04-07T09:51:15;98081.44;;;3.93;89.36
71996;BME280;59862;47.732;7.346;2023-04-07T09:53:50;98083.76;;;3.72;88.45
71996;BME280;59862;47.732;7.346;2023-04-07T09:56:19;98086.27;;;3.74;88.64
71996;BME280;59862;47.732;7.346;2023-04-07T09:58:50;98090.80;;;3.68;88.73
71996;BME280;59862;47.732;7.346;2023-04-07T10:01:19;98088.39;;;3.46;88.69
71996;BME280;59862;47.732;7.346;2023-04-07T10:03:47;98086.00;;;3.43;88.96
71996;BME280;59862;47.732;7.346;2023-04-07T10:06:16;98090.42;;;3.48;89.21
71996;BME280;59862;47.732;7.346;2023-04-07T10:08:43;98088.61;;;3.48;89.28
71996;BME280;59862;47.732;7.346;2023-04-07T10:11:11;98089.09;;;3.48;89.45
71996;BME280;59862;47.732;7.346;2023-04-07T10:13:39;98088.87;;;3.45;89.76
71996;BME280;59862;47.732;7.346;2023-04-07T10:16:07;98091.19;;;3.54;89.85
71996;BME280;59862;47.732;7.346;2023-04-07T10:18:36;98090.44;;;3.67;89.86
71996;BME280;59862;47.732;7.346;2023-04-07T10:21:06;98096.75;;;3.85;89.83
71996;BME280;59862;47.732;7.346;2023-04-07T10:24:04;98097.59;;;4.05;89.78
71996;BME280;59862;47.732;7.346;2023-04-07T10:26:27;98097.71;;;4.13;89.35
71996;BME280;59862;47.732;7.346;2023-04-07T10:28:59;98102.59;;;4.08;88.76
71996;BME280;59862;47.732;7.346;2023-04-07T10:31:26;98100.59;;;3.96;88.48
71996;BME280;59862;47.732;7.346;2023-04-07T10:33:54;98102.11;;;4.08;88.72
71996;BME280;59862;47.732;7.346;2023-04-07T10:36:23;98102.30;;;4.20;88.69
71996;BME280;59862;47.732;7.346;2023-04-07T10:41:41;98112.66;;;4.23;87.94
71996;BME280;59862;47.732;7.346;2023-04-07T10:44:15;98113.02;;;4.24;88.06
71996;BME280;59862;47.732;7.346;2023-04-07T10:49:18;98115.55;;;4.58;87.91
71996;BME280;59862;47.732;7.346;2023-04-07T10:54:33;98117.77;;;4.86;86.83
71996;BME280;59862;47.732;7.346;2023-04-07T10:57:05;98118.05;;;5.06;86.60
71996;BME280;59862;47.732;7.346;2023-04-07T10:59:39;98120.42;;;5.23;86.63
71996;BME280;59862;47.732;7.346;2023-04-07T11:04:52;98120.42;;;5.23;85.03
71996;BME280;59862;47.732;7.346;2023-04-07T11:07:22;98121.98;;;5.16;85.37
71996;BME280;59862;47.732;7.346;2023-04-07T11:09:53;98122.98;;;4.92;85.20
71996;BME280;59862;47.732;7.346;2023-04-07T11:12:23;98114.84;;;4.89;85.81
71996;BME280;59862;47.732;7.346;2023-04-07T11:14:52;98126.00;;;4.93;86.22
71996;BME280;59862;47.732;7.346;2023-04-07T11:17:19;98120.69;;;4.93;86.02
71996;BME280;59862;47.732;7.346;2023-04-07T11:19:53;98119.56;;;4.95;85.93
71996;BME280;59862;47.732;7.346;2023-04-07T11:22:21;98124.63;;;4.89;85.64
71996;BME280;59862;47.732;7.346;2023-04-07T11:24:49;98120.05;;;4.95;85.92
71996;BME280;59862;47.732;7.346;2023-04-07T11:27:16;98119.06;;;4.73;85.41
71996;BME280;59862;47.732;7.346;2023-04-07T11:29:44;98125.66;;;4.69;85.47
71996;BME280;59862;47.732;7.346;2023-04-07T11:32:12;98124.69;;;4.60;85.72
71996;BME280;59862;47.732;7.346;2023-04-07T11:34:40;98126.02;;;4.70;86.29
71996;BME280;59862;47.732;7.346;2023-04-07T11:37:21;98124.80;;;4.78;86.77
71996;BME280;59862;47.732;7.346;2023-04-07T11:39:58;98124.78;;;4.87;87.11
71996;BME280;59862;47.732;7.346;2023-04-07T11:42:33;98122.14;;;4.78;86.58
71996;BME280;59862;47.732;7.346;2023-04-07T11:45:01;98126.13;;;4.78;86.81
71996;BME280;59862;47.732;7.346;2023-04-07T11:47:36;98132.66;;;4.70;86.94
71996;BME280;59862;47.732;7.346;2023-04-07T11:50:04;98124.05;;;4.72;86.91
71996;BME280;59862;47.732;7.346;2023-04-07T11:55:32;98133.46;;;4.80;87.38
71996;BME280;59862;47.732;7.346;2023-04-07T11:58:06;98133.34;;;4.72;86.81
71996;BME280;59862;47.732;7.346;2023-04-07T12:00:36;98135.01;;;4.73;86.86
71996;BME280;59862;47.732;7.346;2023-04-07T12:03:11;98131.44;;;4.78;86.99
71996;BME280;59862;47.732;7.346;2023-04-07T12:05:43;98130.97;;;4.69;86.62
71996;BME280;59862;47.732;7.346;2023-04-07T12:08:12;98134.74;;;4.66;86.86
71996;BME280;59862;47.732;7.346;2023-04-07T12:10:40;98132.77;;;4.78;87.32
71996;BME280;59862;47.732;7.346;2023-04-07T12:13:08;98137.66;;;4.73;87.13
71996;BME280;59862;47.732;7.346;2023-04-07T12:15:36;98133.89;;;4.75;87.25
71996;BME280;59862;47.732;7.346;2023-04-07T12:18:04;98136.44;;;4.67;87.38
71996;BME280;59862;47.732;7.346;2023-04-07T12:20:32;98139.52;;;4.63;87.62
71996;BME280;59862;47.732;7.346;2023-04-07T12:22:59;98129.69;;;4.73;88.04
71996;BME280;59862;47.732;7.346;2023-04-07T12:25:27;98130.11;;;4.78;88.04
71996;BME280;59862;47.732;7.346;2023-04-07T12:27:54;98129.11;;;4.79;88.06
71996;BME280;59862;47.732;7.346;2023-04-07T12:30:22;98134.84;;;4.84;88.02
71996;BME280;59862;47.732;7.346;2023-04-07T12:32:49;98127.56;;;4.86;87.98
71996;BME280;59862;47.732;7.346;2023-04-07T12:35:16;98133.70;;;4.96;88.10
71996;BME280;59862;47.732;7.346;2023-04-07T12:37:44;98129.33;;;5.04;87.96
71996;BME280;59862;47.732;7.346;2023-04-07T12:40:12;98134.31;;;5.17;88.09
71996;BME280;59862;47.732;7.346;2023-04-07T12:42:41;98135.30;;;5.29;87.73
71996;BME280;59862;47.732;7.346;2023-04-07T12:45:09;98131.81;;;5.15;87.12
71996;BME280;59862;47.732;7.346;2023-04-07T12:47:37;98135.44;;;5.14;87.08
71996;BME280;59862;47.732;7.346;2023-04-07T12:50:05;98137.48;;;5.30;87.13
71996;BME280;59862;47.732;7.346;2023-04-07T12:52:33;98136.77;;;5.42;86.80
71996;BME280;59862;47.732;7.346;2023-04-07T12:55:01;98138.80;;;5.57;86.81
71996;BME280;59862;47.732;7.346;2023-04-07T12:57:29;98132.42;;;5.68;86.52
71996;BME280;59862;47.732;7.346;2023-04-07T12:59:58;98136.73;;;5.65;86.21
71996;BME280;59862;47.732;7.346;2023-04-07T13:02:25;98137.66;;;5.73;86.14
71996;BME280;59862;47.732;7.346;2023-04-07T13:04:52;98141.61;;;5.69;85.56
71996;BME280;59862;47.732;7.346;2023-04-07T13:07:20;98137.62;;;5.56;85.40
71996;BME280;59862;47.732;7.346;2023-04-07T13:09:47;98132.58;;;5.66;85.94
71996;BME280;59862;47.732;7.346;2023-04-07T13:12:15;98139.64;;;5.71;86.08
71996;BME280;59862;47.732;7.346;2023-04-07T13:14:42;98133.55;;;5.65;85.73
71996;BME280;59862;47.732;7.346;2023-04-07T13:17:10;98138.95;;;5.69;86.39
71996;BME280;59862;47.732;7.346;2023-04-07T13:19:38;98139.03;;;5.77;86.18
71996;BME280;59862;47.732;7.346;2023-04-07T13:22:06;98138.74;;;5.80;85.82
71996;BME280;59862;47.732;7.346;2023-04-07T13:24:34;98136.01;;;5.76;86.01
71996;BME280;59862;47.732;7.346;2023-04-07T13:27:02;98135.08;;;5.81;86.26
71996;BME280;59862;47.732;7.346;2023-04-07T13:29:30;98133.09;;;5.83;86.41
71996;BME280;59862;47.732;7.346;2023-04-07T13:32:05;98131.74;;;5.93;86.49
71996;BME280;59862;47.732;7.346;2023-04-07T13:34:34;98131.13;;;5.99;86.50
71996;BME280;59862;47.732;7.346;2023-04-07T13:37:02;98128.48;;;5.85;86.15
71996;BME280;59862;47.732;7.346;2023-04-07T13:39:31;98133.44;;;5.98;86.51